Aktuální počasí v Česku a ve světě - METAR

Seznam meteostanic umístěných nejčasteji na letišti v ČR a ve světě

Vyhledat místa podle abecedy:
A B C D E F G H I J K L M N O P Q R S T U V W X Y Z

Filtrovat:

ID stanice:
a/nebo
Název místa (fulltext):
 
Místo (ID)Naposledy načteno 
Pardubice (Pardubice) 20.03.2023 21:00 UTC Zobrazit data
Místo: Pardubice
Teplota: 9 °C (pocitová: 6.8 °C)
Vítr: 1 m/s z(e) 220°
Počasí: skoro zataženo
Dohlednost: 15 km
Zákl. oblačnosti: 3/8 1110 m;5/8 2400 m
Vlhkost: 87%
Pec pod Sněžkou (Pec p.Snez) 20.03.2023 21:00 UTC Zobrazit data
Místo: Pec pod Sněžkou
Teplota: 3 °C (pocitová: -0.6 °C)
Vítr: 1 m/s z(e) 220°
Počasí: zataženo
Dohlednost: 30 km
Zákl. oblačnosti: 1/8 840 m;7/8 1800 m
Vlhkost: 93%
Plzeň město - Mikulka (Plzen/Miku) 20.03.2023 21:00 UTC Zobrazit data
Místo: Plzeň město - Mikulka
Teplota: 9 °C (pocitová: 3.9 °C)
Vítr: 4 m/s z(e) 230°
Počasí: zataženo
Dohlednost: 35 km
Zákl. oblačnosti: 8/8 3300 m
Vlhkost: 76%
Polom (Polom) 20.03.2023 21:00 UTC Zobrazit data
Místo: Polom
Teplota: 6 °C (pocitová: 3.1 °C)
Vítr: 1 m/s z(e) 340°
Počasí: déšť
Dohlednost: 10 km
Zákl. oblačnosti: 8/8 930 m
Vlhkost: 87%
Praha - Karlov (Praha/Kar) 20.03.2023 21:00 UTC Zobrazit data
Místo: Praha - Karlov
Teplota: 11 °C (pocitová: 7.3 °C)
Vítr: 3 m/s z(e) 240°
Počasí: zataženo
Dohlednost: 35 km
Zákl. oblačnosti: 8/8 1500 m
Vlhkost: 67%
Praha - Kbely (Praha/Kbe) 20.03.2023 21:00 UTC Zobrazit data
Místo: Praha - Kbely
Teplota: 11 °C (pocitová: 7.3 °C)
Vítr: 3 m/s z(e) 230°
Počasí: skoro zataženo
Dohlednost: 20 km
Zákl. oblačnosti: 2/8 1320 m;7/8 1500 m
Vlhkost: 67%
Praha - Libuš (Praha/Lib) 20.03.2023 21:00 UTC Zobrazit data
Místo: Praha - Libuš
Teplota: 11 °C (pocitová: 8.2 °C)
Vítr: 2 m/s z(e) 230°
Počasí: zataženo
Dohlednost: 35 km
Zákl. oblačnosti: 1/8 1050 m;8/8 1500 m
Vlhkost: 67%
Praha - Ruzyně (Praha/Ru) 20.03.2023 21:00 UTC Zobrazit data
Místo: Praha - Ruzyně
Teplota: 9 °C (pocitová: 4.7 °C)
Vítr: 3 m/s z(e) 220°
Počasí: skoro zataženo
Dohlednost: 60 km
Zákl. oblačnosti: 1/8 1500 m;4/8 1800 m
Vlhkost: 82%
Přibyslav (Pribyslav) 20.03.2023 21:00 UTC Zobrazit data
Místo: Přibyslav
Teplota: 8 °C (pocitová: 4.4 °C)
Vítr: 2 m/s z(e) 300°
Počasí: zataženo
Dohlednost: 35 km
Zákl. oblačnosti: 5/8 1470 m;7/8 2400 m
Vlhkost: 76%
Přimda (Primda) 20.03.2023 21:00 UTC Zobrazit data
Místo: Přimda
Teplota: 5 °C (pocitová: -1.5 °C)
Vítr: 4 m/s z(e) 270°
Počasí: zataženo
Dohlednost: 17 km
Zákl. oblačnosti: 1/8 3000 m;8/8 4200 m
Vlhkost: 93%
Pago Pago (NSTU) 20.03.2023 19:50 UTC Zobrazit METAR
NSTU 201950Z VRB05KT 12SM FEW019 BKN250 28/28 A2990 RMK SLP127 T02840277
Palanga (EYPA) 20.03.2023 20:50 UTC Zobrazit METAR
EYPA 202050Z 24006KT 200V290 5000 -RA BR OVC002 04/04 Q1010
Palermo (LICJ) 20.03.2023 20:50 UTC Zobrazit METAR
LICJ 202050Z 06007KT 9999 SCT050 14/10 Q1017
Palma de Mallorca (LEPA) 20.03.2023 21:00 UTC Zobrazit METAR
LEPA 202100Z VRB02KT 9999 FEW016 SCT028 12/11 Q1020 NOSIG
Panama City (MPTO) 20.03.2023 21:00 UTC Zobrazit METAR
MPTO 202100Z 16009KT 9999 SCT020 32/23 Q1009 NOSIG
Paramaribo (SMZO) 20.03.2023 21:00 UTC Zobrazit METAR
SMZO 202100Z 04008KT 9999 FEW015 27/21 Q1013 NOSIG
Paris (LFPG) 20.03.2023 21:00 UTC Zobrazit METAR
LFPG 202100Z 19006KT CAVOK 13/07 Q1019 NOSIG
Paro (VQPR) 20.03.2023 10:00 UTC Zobrazit METAR
VQPR 201000Z 15009KT 8000 SCT030 OVC050 13/05 Q1013
Phnom Penh (VDPP) 20.03.2023 21:00 UTC Zobrazit METAR
VDPP 202100Z 15008KT 9000 FEW017 SCT040 27/24 Q1008
Plovdiv (LBPD) 20.03.2023 14:00 UTC Zobrazit METAR
LBPD 201400Z AUTO 09003KT 020V130 9999 FEW190/// 20/04 Q1015 NOSIG
Pohnpei I (PTPN) 20.03.2023 02:51 UTC Zobrazit METAR
PTPN 200251Z 14006KT 15SM SCT018 BKN300 32/26 A2977 RMK LAST
Ponta Delgada (LPPD) 20.03.2023 21:00 UTC Zobrazit METAR
LPPD 202100Z 27007KT 9999 FEW020 15/12 Q1024
Pori (EFPO) 20.03.2023 20:50 UTC Zobrazit METAR
EFPO 202050Z AUTO 34003KT 290V010 9999 BKN006 M00/M01 Q1008
Port Moresby (AYPY) 20.03.2023 21:00 UTC Zobrazit METAR
AYPY 202100Z 32005KT 9999 FEW050 24/23 Q1009=
Port of Spain (TTPP) 20.03.2023 21:00 UTC Zobrazit METAR
TTPP 202100Z 09014KT 9999 FEW020 BKN045 28/18 Q1014 NOSIG
Port Vila (NVVV) 20.03.2023 21:00 UTC Zobrazit METAR
NVVV 202100Z 11009KT 9999 SCT018 BKN040 26/25 Q1010 RESHRA
Port-au-Prince (MTPP) 20.03.2023 21:00 UTC Zobrazit METAR
MTPP 202100Z 11012G24KT 9999 SCT026 BKN045 29/20 Q1015 A2999
Porto (LPPR) 20.03.2023 21:00 UTC Zobrazit METAR
LPPR 202100Z 08003KT 050V150 9999 FEW018 11/10 Q1021
Poznan (EPPO) 20.03.2023 21:00 UTC Zobrazit METAR
EPPO 202100Z 26006KT 9999 BKN046 09/06 Q1016
Prague (LKPR) 20.03.2023 21:00 UTC Zobrazit METAR
LKPR 202100Z 22007KT CAVOK 09/05 Q1017 NOSIG
Praia (GVFM) Zatím nenačteno  
Pyongyang (ZKPY) Zatím nenačteno  
Reklama


Newslettter

Počasí na Váš email

Každý den ráno pošleme předpověď
Emaily chodí ráno a bez reklamy



Odhlásit newsletter

Krásné fotografie přírody - (nejen) tapety na pozadí do počítače

Článek
Fotografie slunečné zimní krajiny
7. prosince 2022 17:13
Článek
Obrázky na téma slunečno
25. srpna 2022 05:03
Článek
Obrázky květin
5. června 2022 12:12
Článek
Obrázky východu slunce
1. června 2022 15:08

Přidejte si Počasí Slunečno na svůj Facebook
Facebook Počasí Slunečno.cz
Aplikace pro Windows 10/11 nebo chytré mobilní telefony
Stáhněte si aplikaci Slunečno.cz na Microsoft Store Stáhněte si aplikaci Slunečno.cz na Google Play

Nenašli jste zde to, co hledáte? Vyzkoušejte vylepšené vyhledávání Google pro celý internet: